Time;durP1;ratioP1;P1;durP2;ratioP2;P2;SDS_P1;SDS_P2;PMS_P1;PMS_P2;Temp;Humidity;BMP_temperature;BMP_pressure;BME280_temperature;BME280_humidity;BME280_pressure;Samples;Min_cycle;Max_cycle;Signal;HPM_P1;HPM_P2
2023/06/16 00:00:32;;;;;;;12.73;7.10;;;13.10;94.70;;;;;;5984101;24;20433;-62
2023/06/16 00:02:59;;;;;;;11.43;7.37;;;13.10;94.40;;;;;;5983725;24;20423;-62
2023/06/16 00:05:26;;;;;;;11.70;8.13;;;13.10;93.70;;;;;;5984191;24;20449;-62
2023/06/16 00:07:53;;;;;;;15.27;7.80;;;13.10;94.60;;;;;;5984025;24;20421;-62
2023/06/16 00:10:20;;;;;;;11.30;8.40;;;13.00;94.60;;;;;;5984155;24;20427;-62
2023/06/16 00:12:47;;;;;;;18.23;9.93;;;13.10;93.90;;;;;;5983915;24;20441;-62
2023/06/16 00:15:15;;;;;;;13.03;8.97;;;13.00;95.00;;;;;;5983131;24;20508;-62
2023/06/16 00:17:46;;;;;;;14.83;8.60;;;13.00;95.00;;;;;;5983580;24;20430;-62
2023/06/16 00:20:14;;;;;;;14.07;9.73;;;12.90;95.50;;;;;;5983893;24;20406;-62
2023/06/16 00:22:41;;;;;;;11.57;8.13;;;12.90;95.80;;;;;;5984105;24;20417;-62
2023/06/16 00:25:09;;;;;;;12.20;9.90;;;13.00;96.10;;;;;;5983100;24;20429;-63
2023/06/16 00:27:36;;;;;;;15.57;10.40;;;13.00;96.00;;;;;;5983471;24;20430;-62
2023/06/16 00:30:05;;;;;;;13.17;9.50;;;13.00;96.70;;;;;;5983472;24;20421;-62
2023/06/16 00:32:33;;;;;;;15.37;10.47;;;12.90;97.30;;;;;;5983614;24;20477;-62
2023/06/16 00:35:00;;;;;;;13.40;9.73;;;12.80;97.00;;;;;;5983509;24;20428;-62
2023/06/16 00:37:27;;;;;;;17.70;10.10;;;12.80;98.10;;;;;;5983972;24;20425;-62
2023/06/16 00:39:55;;;;;;;11.03;9.53;;;12.80;98.80;;;;;;5983398;24;20509;-62
2023/06/16 00:42:22;;;;;;;13.47;9.37;;;12.70;98.70;;;;;;5983820;24;20424;-62
2023/06/16 00:44:49;;;;;;;9.60;7.37;;;12.70;98.70;;;;;;5983270;24;20764;-61
2023/06/16 00:47:15;;;;;;;12.90;8.23;;;12.70;96.80;;;;;;5984164;24;20443;-62
2023/06/16 00:49:44;;;;;;;11.67;7.87;;;12.70;96.60;;;;;;5983612;24;20428;-62
2023/06/16 00:52:14;;;;;;;11.63;7.63;;;12.60;97.90;;;;;;5983744;24;20523;-62
2023/06/16 00:54:41;;;;;;;11.73;8.10;;;12.50;97.60;;;;;;5983185;24;20478;-62
2023/06/16 00:57:08;;;;;;;16.43;9.17;;;12.50;98.60;;;;;;5984077;24;20421;-62
2023/06/16 00:59:35;;;;;;;12.17;10.00;;;12.50;98.60;;;;;;5983000;24;20427;-62
2023/06/16 01:02:02;;;;;;;12.43;10.00;;;12.40;99.50;;;;;;5983326;24;20423;-62
2023/06/16 01:04:29;;;;;;;19.63;9.80;;;12.40;99.70;;;;;;5983168;24;20456;-62
2023/06/16 01:07:05;;;;;;;11.83;10.63;;;12.40;99.90;;;;;;5983705;24;20950;-62
2023/06/16 01:09:39;;;;;;;13.37;8.93;;;12.30;99.90;;;;;;5983089;24;20867;-62
2023/06/16 01:12:12;;;;;;;11.13;9.93;;;12.30;99.90;;;;;;5983493;24;20429;-62
2023/06/16 01:14:49;;;;;;;14.90;13.40;;;12.30;99.90;;;;;;5983170;24;20405;-62
2023/06/16 01:17:17;;;;;;;12.37;9.70;;;12.20;99.90;;;;;;5983701;24;20405;-62
2023/06/16 01:19:50;;;;;;;11.40;8.93;;;12.20;99.90;;;;;;5983238;24;20427;-62
2023/06/16 01:22:32;;;;;;;9.90;8.90;;;12.20;99.90;;;;;;5983617;24;20401;-62
2023/06/16 01:25:04;;;;;;;11.43;10.23;;;12.10;99.90;;;;;;5982489;24;20429;-62
2023/06/16 01:27:32;;;;;;;14.53;10.67;;;12.10;99.90;;;;;;5983506;24;20485;-62
2023/06/16 01:30:01;;;;;;;14.57;10.00;;;12.10;99.90;;;;;;5982863;24;20428;-62
2023/06/16 01:32:29;;;;;;;12.13;9.97;;;12.20;99.90;;;;;;5982143;24;20971;-62
2023/06/16 01:34:57;;;;;;;15.43;10.67;;;12.20;99.90;;;;;;5982225;24;20421;-62
2023/06/16 01:37:25;;;;;;;17.20;9.80;;;12.20;99.90;;;;;;5983348;24;20422;-62
2023/06/16 01:39:53;;;;;;;14.33;8.10;;;12.20;99.90;;;;;;5982741;24;21000;-62
2023/06/16 01:42:23;;;;;;;16.93;7.93;;;12.20;99.40;;;;;;5983275;24;20504;-62
2023/06/16 01:44:50;;;;;;;11.50;7.03;;;12.20;98.50;;;;;;5982748;24;20443;-62
2023/06/16 01:47:17;;;;;;;10.20;7.10;;;12.30;98.60;;;;;;5983273;24;20425;-62
2023/06/16 01:49:44;;;;;;;11.27;8.20;;;12.30;98.60;;;;;;5982947;24;20457;-62
2023/06/16 01:52:11;;;;;;;9.60;7.57;;;12.20;98.50;;;;;;5983286;24;20843;-62
2023/06/16 01:54:38;;;;;;;12.27;8.47;;;12.20;99.70;;;;;;5982431;24;20499;-62
2023/06/16 01:57:06;;;;;;;9.80;7.23;;;12.20;98.90;;;;;;5983203;24;20491;-62
2023/06/16 01:59:34;;;;;;;11.97;7.50;;;12.20;98.50;;;;;;5982874;24;20748;-62
2023/06/16 02:02:09;;;;;;;13.47;8.47;;;12.20;98.70;;;;;;5983522;24;20420;-62
2023/06/16 02:04:40;;;;;;;14.33;7.90;;;12.20;99.90;;;;;;5982720;24;20710;-62
2023/06/16 02:07:12;;;;;;;13.73;8.53;;;12.20;98.50;;;;;;5983168;24;20406;-62
2023/06/16 02:09:41;;;;;;;13.17;7.63;;;12.20;99.30;;;;;;5982296;24;20406;-62
2023/06/16 02:12:11;;;;;;;12.10;7.83;;;12.10;98.80;;;;;;5982731;24;20483;-62
2023/06/16 02:14:40;;;;;;;11.67;8.90;;;12.00;99.00;;;;;;5982574;24;20421;-62
2023/06/16 02:17:09;;;;;;;15.27;11.90;;;12.00;99.90;;;;;;5982765;24;20421;-61
2023/06/16 02:19:38;;;;;;;14.97;11.43;;;12.00;99.90;;;;;;5982774;24;20428;-62
2023/06/16 02:22:05;;;;;;;12.33;10.80;;;11.90;99.90;;;;;;5983055;24;20504;-61
2023/06/16 02:24:32;;;;;;;12.60;10.17;;;11.90;99.90;;;;;;5982085;24;20439;-62
2023/06/16 02:27:00;;;;;;;12.03;10.77;;;11.90;99.90;;;;;;5982935;24;20805;-61
2023/06/16 02:29:26;;;;;;;17.80;12.83;;;11.90;99.90;;;;;;5982752;24;20753;-62
2023/06/16 02:31:55;;;;;;;16.37;14.87;;;11.90;99.90;;;;;;5982857;24;20429;-62
2023/06/16 02:34:21;;;;;;;14.80;13.40;;;11.80;99.90;;;;;;5982333;24;20426;-62
2023/06/16 02:36:50;;;;;;;17.63;16.03;;;11.80;99.90;;;;;;5982553;24;20913;-62
2023/06/16 02:39:18;;;;;;;18.37;13.20;;;11.80;99.90;;;;;;5982145;24;20437;-62
2023/06/16 02:41:45;;;;;;;18.33;16.73;;;11.80;99.90;;;;;;5982811;24;20428;-62
2023/06/16 02:44:12;;;;;;;18.83;17.13;;;11.80;99.90;;;;;;5982291;24;20424;-62
2023/06/16 02:46:39;;;;;;;17.97;16.40;;;11.80;99.90;;;;;;5982842;24;20444;-62
2023/06/16 02:49:07;;;;;;;19.67;15.43;;;11.70;99.90;;;;;;5982188;24;20431;-62
2023/06/16 02:51:34;;;;;;;21.20;19.40;;;11.70;99.90;;;;;;5982425;24;20430;-61
2023/06/16 02:54:02;;;;;;;22.80;20.70;;;11.70;99.90;;;;;;5981801;24;20447;-61
2023/06/16 02:56:29;;;;;;;23.97;22.00;;;11.70;99.90;;;;;;5982734;24;20421;-62
2023/06/16 02:58:56;;;;;;;23.87;21.93;;;11.60;99.90;;;;;;5982462;24;20421;-62
2023/06/16 03:01:24;;;;;;;23.40;21.40;;;11.60;99.90;;;;;;5982680;24;20508;-62
2023/06/16 03:03:51;;;;;;;26.40;24.30;;;11.60;99.90;;;;;;5982240;24;20420;-62
2023/06/16 03:06:20;;;;;;;18.60;17.00;;;11.50;99.90;;;;;;5982534;24;20427;-61
2023/06/16 03:08:46;;;;;;;19.03;17.53;;;11.50;99.90;;;;;;5982128;24;20981;-62
2023/06/16 03:11:13;;;;;;;13.90;12.60;;;11.40;99.90;;;;;;5982611;24;20419;-62
2023/06/16 03:13:41;;;;;;;13.77;12.33;;;11.40;99.90;;;;;;5981947;24;20495;-62
2023/06/16 03:16:08;;;;;;;19.20;17.53;;;11.40;99.90;;;;;;5982577;24;20424;-62
2023/06/16 03:18:35;;;;;;;23.07;21.17;;;11.40;99.90;;;;;;5982264;24;20420;-62
2023/06/16 03:21:02;;;;;;;32.27;30.30;;;11.40;99.90;;;;;;5982559;24;20427;-61
2023/06/16 03:23:30;;;;;;;45.03;41.90;;;11.30;99.90;;;;;;5981707;24;20455;-62
2023/06/16 03:25:58;;;;;;;41.53;39.13;;;11.30;99.90;;;;;;5982517;24;20410;-61
2023/06/16 03:28:25;;;;;;;37.13;34.47;;;11.30;99.90;;;;;;5982304;24;20726;-62
2023/06/16 03:30:52;;;;;;;42.77;40.37;;;11.30;99.90;;;;;;5982919;24;20449;-62
2023/06/16 03:33:19;;;;;;;21.43;19.63;;;11.30;99.90;;;;;;5981579;24;20949;-61
2023/06/16 03:35:46;;;;;;;21.77;19.73;;;11.40;99.90;;;;;;5982412;24;20425;-61
2023/06/16 03:38:13;;;;;;;53.17;50.60;;;11.40;99.90;;;;;;5982348;24;20421;-61
2023/06/16 03:40:42;;;;;;;85.30;81.80;;;11.40;99.90;;;;;;5982421;24;20420;-62
2023/06/16 03:43:08;;;;;;;75.63;71.93;;;11.50;99.90;;;;;;5981880;24;20417;-62
2023/06/16 03:45:35;;;;;;;80.47;77.17;;;11.40;99.90;;;;;;5982308;24;20420;-62
2023/06/16 03:48:02;;;;;;;101.33;96.63;;;11.50;99.90;;;;;;5981891;24;20429;-62
2023/06/16 03:50:29;;;;;;;75.47;71.97;;;11.50;99.90;;;;;;5982062;24;20420;-61
2023/06/16 03:52:56;;;;;;;58.17;54.67;;;11.50;99.90;;;;;;5981467;24;20496;-62
2023/06/16 03:55:23;;;;;;;63.40;60.23;;;11.60;99.90;;;;;;5982335;24;20448;-62
2023/06/16 03:57:52;;;;;;;64.17;61.00;;;11.60;99.90;;;;;;5982163;24;20757;-62
2023/06/16 04:00:19;;;;;;;65.50;62.67;;;11.60;99.90;;;;;;5982485;24;20428;-62
2023/06/16 04:02:46;;;;;;;66.83;63.93;;;11.60;99.90;;;;;;5982371;24;20444;-61
2023/06/16 04:05:14;;;;;;;65.63;62.33;;;11.70;99.90;;;;;;5981014;24;20421;-62
2023/06/16 04:07:41;;;;;;;48.00;44.83;;;11.70;99.90;;;;;;5982054;24;20429;-61
2023/06/16 04:10:08;;;;;;;30.43;28.40;;;11.80;99.90;;;;;;5982227;24;20427;-61
2023/06/16 04:12:35;;;;;;;23.07;21.50;;;11.80;99.90;;;;;;5981838;24;20976;-61
2023/06/16 04:15:05;;;;;;;31.53;29.33;;;11.90;99.90;;;;;;5981687;24;20425;-62
2023/06/16 04:17:32;;;;;;;36.63;34.23;;;11.90;99.90;;;;;;5982327;24;20532;-62
2023/06/16 04:19:59;;;;;;;33.30;30.93;;;12.00;99.90;;;;;;5981788;24;20869;-62
2023/06/16 04:22:26;;;;;;;17.23;15.47;;;12.10;99.90;;;;;;5982238;24;20428;-61
2023/06/16 04:24:53;;;;;;;17.10;13.87;;;12.10;99.90;;;;;;5981447;24;20504;-61
2023/06/16 04:27:23;;;;;;;14.17;11.80;;;12.20;99.90;;;;;;5981868;24;20420;-61
2023/06/16 04:29:50;;;;;;;20.13;11.97;;;12.20;99.90;;;;;;5982126;24;20464;-62
2023/06/16 04:32:19;;;;;;;16.10;14.50;;;12.30;99.90;;;;;;5982148;24;20444;-62
2023/06/16 04:34:46;;;;;;;14.87;12.43;;;12.30;99.90;;;;;;5982985;24;20814;-61
2023/06/16 04:37:14;;;;;;;14.33;10.00;;;12.40;99.90;;;;;;5983985;24;20811;-62
2023/06/16 04:39:41;;;;;;;12.80;9.70;;;12.50;99.90;;;;;;5983582;24;20485;-62
2023/06/16 04:42:09;;;;;;;13.57;9.10;;;12.70;99.90;;;;;;5983420;24;20504;-62
2023/06/16 04:44:36;;;;;;;17.43;11.73;;;12.80;99.90;;;;;;5982941;24;20425;-62
2023/06/16 04:47:03;;;;;;;13.27;10.43;;;12.90;99.90;;;;;;5983872;24;20758;-62
2023/06/16 04:49:32;;;;;;;15.27;12.53;;;13.00;99.90;;;;;;5983246;24;20428;-62
2023/06/16 04:51:59;;;;;;;14.80;10.70;;;13.10;99.90;;;;;;5983577;24;20457;-62
2023/06/16 04:54:26;;;;;;;13.57;9.60;;;13.20;99.90;;;;;;5983045;24;20828;-62
2023/06/16 04:56:53;;;;;;;17.20;9.60;;;13.40;99.90;;;;;;5983408;24;20473;-64
2023/06/16 04:59:20;;;;;;;14.97;10.13;;;13.50;99.90;;;;;;5983173;24;20422;-64
2023/06/16 05:01:47;;;;;;;23.90;8.60;;;13.60;99.90;;;;;;5983132;24;20422;-64
2023/06/16 05:04:14;;;;;;;10.37;8.13;;;13.80;99.90;;;;;;5982983;24;20425;-64
2023/06/16 05:06:42;;;;;;;11.90;8.57;;;13.90;99.90;;;;;;5983373;24;20426;-64
2023/06/16 05:09:09;;;;;;;16.00;7.77;;;14.00;99.30;;;;;;5983274;24;20422;-64
2023/06/16 05:11:36;;;;;;;17.33;8.43;;;14.20;99.40;;;;;;5983216;24;20457;-64
2023/06/16 05:14:03;;;;;;;12.93;8.33;;;14.30;99.40;;;;;;5982884;24;20520;-64
2023/06/16 05:16:30;;;;;;;16.00;8.70;;;14.40;99.40;;;;;;5983204;24;20488;-64
2023/06/16 05:18:57;;;;;;;13.13;9.20;;;14.80;99.60;;;;;;5983347;24;20494;-64
2023/06/16 05:21:25;;;;;;;19.87;9.63;;;15.30;96.90;;;;;;5983507;24;20426;-64
2023/06/16 05:23:53;;;;;;;9.90;6.63;;;15.80;95.30;;;;;;5982376;24;20506;-64
2023/06/16 05:26:21;;;;;;;11.03;6.57;;;16.40;93.60;;;;;;5983457;24;20408;-64
2023/06/16 05:28:49;;;;;;;11.23;6.40;;;17.00;90.00;;;;;;5983300;24;20420;-64
2023/06/16 05:31:16;;;;;;;12.07;6.57;;;17.80;84.10;;;;;;5983558;24;20415;-64
2023/06/16 05:33:43;;;;;;;9.93;5.83;;;18.20;74.30;;;;;;5982772;24;20830;-64
2023/06/16 05:36:10;;;;;;;12.53;6.57;;;18.70;73.80;;;;;;5983044;24;20924;-64
2023/06/16 05:38:36;;;;;;;13.67;6.43;;;19.20;60.90;;;;;;5982735;24;20424;-64
2023/06/16 05:41:05;;;;;;;17.30;6.20;;;19.80;59.90;;;;;;5983346;24;20419;-64
2023/06/16 05:43:32;;;;;;;20.67;5.67;;;19.90;53.10;;;;;;5981134;24;20475;-64
2023/06/16 05:45:58;;;;;;;11.97;5.60;;;20.00;46.30;;;;;;5982344;24;20475;-64
2023/06/16 05:48:25;;;;;;;12.17;4.97;;;20.50;44.90;;;;;;5983042;24;20820;-64
2023/06/16 05:50:52;;;;;;;18.00;6.13;;;20.80;36.10;;;;;;5983220;24;20445;-64
2023/06/16 05:53:19;;;;;;;11.07;5.80;;;21.50;46.70;;;;;;5982459;24;20523;-63
2023/06/16 05:55:46;;;;;;;8.53;5.03;;;22.00;42.90;;;;;;5982866;24;20921;-63
2023/06/16 05:58:14;;;;;;;15.37;5.17;;;22.10;32.10;;;;;;5982888;24;20420;-63
2023/06/16 06:00:41;;;;;;;10.60;6.10;;;22.10;23.90;;;;;;5982859;24;20968;-64
2023/06/16 06:03:08;;;;;;;8.57;4.63;;;22.20;22.70;;;;;;5982490;24;20394;-64
2023/06/16 06:05:35;;;;;;;11.37;5.70;;;22.60;23.40;;;;;;5983089;24;20498;-64
2023/06/16 06:08:02;;;;;;;8.60;4.67;;;22.90;23.00;;;;;;5982542;24;20917;-64
2023/06/16 06:10:29;;;;;;;13.53;5.47;;;22.90;20.60;;;;;;5983045;24;20451;-64
2023/06/16 06:12:55;;;;;;;8.77;5.30;;;22.90;18.90;;;;;;5980747;24;20426;-64
2023/06/16 06:15:24;;;;;;;15.70;6.57;;;22.80;21.70;;;;;;5980331;24;20450;-64
2023/06/16 06:17:51;;;;;;;9.93;5.40;;;22.70;24.90;;;;;;5981119;24;20911;-64
2023/06/16 06:20:18;;;;;;;11.17;5.70;;;22.90;24.90;;;;;;5981556;24;20486;-64
2023/06/16 06:22:44;;;;;;;7.77;5.50;;;22.70;21.70;;;;;;5981741;24;20507;-64
2023/06/16 06:25:13;;;;;;;10.23;5.53;;;22.80;21.70;;;;;;5980488;24;20427;-64
2023/06/16 06:27:40;;;;;;;10.80;4.43;;;22.70;18.20;;;;;;5981558;24;20742;-64
2023/06/16 06:30:08;;;;;;;13.10;5.17;;;22.90;21.80;;;;;;5981595;24;20431;-64
2023/06/16 06:32:37;;;;;;;14.90;5.00;;;23.20;20.00;;;;;;5981265;24;20462;-63
2023/06/16 06:35:04;;;;;;;9.93;5.07;;;23.30;16.80;;;;;;5980913;24;20443;-62
2023/06/16 06:37:31;;;;;;;12.60;5.50;;;23.30;14.60;;;;;;5981630;24;20741;-63
2023/06/16 06:39:59;;;;;;;11.37;5.13;;;23.20;14.50;;;;;;5981407;24;20798;-63
2023/06/16 06:42:26;;;;;;;8.67;4.50;;;23.40;14.60;;;;;;5982322;24;20419;-62
2023/06/16 06:44:54;;;;;;;8.93;5.13;;;23.60;14.80;;;;;;5980656;24;20390;-63
2023/06/16 06:47:21;;;;;;;9.53;4.90;;;23.60;15.90;;;;;;5982813;24;20394;-62
2023/06/16 06:49:50;;;;;;;9.50;5.20;;;24.30;11.80;;;;;;5980674;24;20419;-63
2023/06/16 06:52:17;;;;;;;9.60;5.83;;;24.40;11.30;;;;;;5981164;24;20422;-63
2023/06/16 06:54:44;;;;;;;10.37;6.03;;;24.20;12.50;;;;;;5980910;24;20546;-61
2023/06/16 06:57:12;;;;;;;12.60;5.90;;;24.00;7.40;;;;;;5980615;24;20452;-62
2023/06/16 06:59:41;;;;;;;11.23;5.87;;;23.80;7.30;;;;;;5980638;24;20419;-62
2023/06/16 07:02:08;;;;;;;12.67;6.63;;;23.80;8.40;;;;;;5981016;24;20426;-62
2023/06/16 07:04:38;;;;;;;9.70;6.10;;;23.80;7.20;;;;;;5979921;24;20900;-62
2023/06/16 07:07:07;;;;;;;8.23;5.17;;;24.10;7.50;;;;;;5980449;24;20749;-62
2023/06/16 07:09:34;;;;;;;9.30;5.33;;;24.00;7.40;;;;;;5981073;24;20475;-61
2023/06/16 07:12:02;;;;;;;8.77;5.53;;;24.00;7.40;;;;;;5979852;24;20419;-61
2023/06/16 07:14:30;;;;;;;10.50;4.73;;;24.00;5.20;;;;;;5980486;24;20443;-61
2023/06/16 07:16:58;;;;;;;11.20;5.10;;;23.80;7.30;;;;;;5981233;24;20422;-61
2023/06/16 07:19:26;;;;;;;8.70;5.07;;;23.90;6.10;;;;;;5980536;24;20419;-61
2023/06/16 07:21:53;;;;;;;8.20;4.63;;;24.00;10.00;;;;;;5981130;24;20419;-61
2023/06/16 07:24:22;;;;;;;9.67;5.03;;;23.80;5.30;;;;;;5980229;24;20423;-62
2023/06/16 07:26:49;;;;;;;9.53;5.40;;;24.00;3.70;;;;;;5981243;24;20498;-62
2023/06/16 07:29:16;;;;;;;8.97;3.87;;;24.50;3.60;;;;;;5980789;24;20419;-62
2023/06/16 07:31:42;;;;;;;12.20;4.33;;;24.60;5.90;;;;;;5980408;24;20424;-62
2023/06/16 07:34:09;;;;;;;7.30;4.17;;;24.50;2.00;;;;;;5980370;24;20439;-62
2023/06/16 07:36:38;;;;;;;10.37;4.50;;;24.60;1.00;;;;;;5979472;24;20515;-62
2023/06/16 07:39:04;;;;;;;11.27;4.63;;;24.90;1.00;;;;;;5980697;24;20427;-62
2023/06/16 07:41:33;;;;;;;8.33;4.23;;;24.60;2.30;;;;;;5980207;24;20420;-62
2023/06/16 07:44:00;;;;;;;9.40;4.80;;;24.60;1.00;;;;;;5979915;24;20423;-62
2023/06/16 07:46:27;;;;;;;12.43;4.77;;;24.90;1.00;;;;;;5980568;24;20434;-62
2023/06/16 07:48:54;;;;;;;10.90;4.43;;;24.80;1.00;;;;;;5979671;24;20453;-62
2023/06/16 07:51:21;;;;;;;9.30;4.40;;;24.50;1.00;;;;;;5981074;24;20510;-63
2023/06/16 07:53:49;;;;;;;9.10;4.70;;;25.10;1.00;;;;;;5979726;24;20419;-63
2023/06/16 07:56:16;;;;;;;8.90;4.47;;;25.30;1.00;;;;;;5980432;24;20442;-63
2023/06/16 07:58:44;;;;;;;11.73;5.03;;;25.30;1.00;;;;;;5980707;24;20420;-63
2023/06/16 08:01:11;;;;;;;10.57;4.73;;;25.30;1.00;;;;;;5980711;24;20419;-63
2023/06/16 08:03:38;;;;;;;9.50;4.80;;;25.20;1.00;;;;;;5980125;24;21314;-63
2023/06/16 08:06:06;;;;;;;8.93;5.00;;;25.10;1.00;;;;;;5979941;24;20426;-62
2023/06/16 08:08:33;;;;;;;8.37;4.23;;;25.20;1.00;;;;;;5980989;24;20419;-63
2023/06/16 08:11:00;;;;;;;8.20;4.83;;;25.30;1.00;;;;;;5982952;24;20746;-63
2023/06/16 08:13:27;;;;;;;9.63;4.50;;;25.30;1.00;;;;;;5982015;24;20426;-63
2023/06/16 08:15:56;;;;;;;7.00;4.27;;;25.70;1.00;;;;;;5983669;24;20454;-63
2023/06/16 08:18:24;;;;;;;10.03;4.83;;;25.60;1.00;;;;;;5982208;24;20484;-63
2023/06/16 08:20:51;;;;;;;9.20;4.53;;;25.80;1.00;;;;;;5982408;24;20901;-63
2023/06/16 08:23:18;;;;;;;13.43;4.90;;;26.40;1.00;;;;;;5982495;24;20463;-65
2023/06/16 08:25:47;;;;;;;9.63;4.67;;;27.10;1.00;;;;;;5983327;24;20429;-65
2023/06/16 08:28:14;;;;;;;8.27;4.07;;;26.60;1.00;;;;;;5984099;24;20420;-65
2023/06/16 08:30:41;;;;;;;10.33;5.20;;;26.90;1.00;;;;;;5983712;24;20478;-65
2023/06/16 08:33:10;;;;;;;14.63;4.47;;;27.20;1.00;;;;;;5982975;24;20899;-65
2023/06/16 08:35:37;;;;;;;8.50;5.30;;;27.00;1.00;;;;;;5983539;24;20937;-65
2023/06/16 08:38:04;;;;;;;8.80;4.37;;;27.00;1.00;;;;;;5983673;24;20460;-65
2023/06/16 08:40:31;;;;;;;8.90;5.13;;;27.60;1.00;;;;;;5983950;24;20506;-65
2023/06/16 08:42:59;;;;;;;12.03;4.20;;;28.00;1.00;;;;;;5983235;24;20740;-65
2023/06/16 08:45:27;;;;;;;7.60;4.17;;;28.10;1.00;;;;;;5983501;24;20916;-66
2023/06/16 08:47:54;;;;;;;8.10;4.20;;;28.00;1.00;;;;;;5983698;24;20423;-65
2023/06/16 08:50:23;;;;;;;7.80;4.57;;;27.60;1.00;;;;;;5983732;24;20423;-65
2023/06/16 08:52:52;;;;;;;11.47;4.37;;;27.40;1.00;;;;;;5983306;24;20487;-65
2023/06/16 08:55:20;;;;;;;8.43;4.13;;;28.10;1.00;;;;;;5983401;24;20443;-65
2023/06/16 08:57:51;;;;;;;7.93;4.20;;;27.80;1.00;;;;;;5983275;24;20912;-65
2023/06/16 09:00:19;;;;;;;7.27;3.93;;;28.10;1.00;;;;;;5983790;24;20414;-65
2023/06/16 09:02:48;;;;;;;9.90;4.37;;;28.60;1.00;;;;;;5983224;24;20449;-65
2023/06/16 09:05:16;;;;;;;8.60;4.10;;;28.20;1.00;;;;;;5981752;24;20423;-63
2023/06/16 09:07:47;;;;;;;9.77;4.80;;;28.70;1.00;;;;;;5982069;24;20895;-63
2023/06/16 09:10:14;;;;;;;11.30;4.70;;;28.80;1.00;;;;;;5982300;24;20423;-63
2023/06/16 09:12:40;;;;;;;8.97;4.40;;;28.10;1.00;;;;;;5982983;24;20474;-63
2023/06/16 09:15:10;;;;;;;9.90;4.40;;;28.40;1.00;;;;;;5982371;24;20449;-63
2023/06/16 09:17:38;;;;;;;10.40;4.47;;;28.40;1.00;;;;;;5983544;24;20505;-62
2023/06/16 09:20:07;;;;;;;8.27;4.20;;;28.40;1.00;;;;;;5982918;24;20430;-63
2023/06/16 09:22:36;;;;;;;12.00;5.07;;;28.90;1.00;;;;;;5983995;24;20501;-62
2023/06/16 09:25:05;;;;;;;10.00;4.87;;;28.30;1.00;;;;;;5982987;24;20783;-62
2023/06/16 09:27:44;;;;;;;8.93;4.50;;;27.70;1.00;;;;;;5983762;24;20450;-63
2023/06/16 09:30:15;;;;;;;7.43;4.60;;;28.20;1.00;;;;;;5983517;24;20413;-62
2023/06/16 09:32:42;;;;;;;7.60;4.40;;;29.40;1.00;;;;;;5983635;24;20417;-63
2023/06/16 09:35:20;;;;;;;8.27;5.53;;;30.00;1.00;;;;;;5983323;24;20535;-62
2023/06/16 09:37:47;;;;;;;11.50;3.93;;;30.50;1.00;;;;;;5983776;24;20419;-62
2023/06/16 09:40:17;;;;;;;10.73;3.50;;;30.10;1.00;;;;;;5983672;24;20426;-63
2023/06/16 09:42:45;;;;;;;6.40;3.97;;;29.80;1.00;;;;;;5983925;24;20955;-63
2023/06/16 09:45:14;;;;;;;9.60;4.30;;;30.20;1.00;;;;;;5982947;24;20415;-64
2023/06/16 09:47:44;;;;;;;9.70;4.10;;;29.30;1.00;;;;;;5983405;24;20458;-65
2023/06/16 09:50:13;;;;;;;9.10;4.60;;;28.60;1.00;;;;;;5983771;24;20436;-65
2023/06/16 09:52:42;;;;;;;6.73;3.97;;;28.70;1.00;;;;;;5981676;24;20777;-64
2023/06/16 09:55:11;;;;;;;7.67;3.90;;;28.90;1.00;;;;;;5981591;24;20504;-66
2023/06/16 09:57:42;;;;;;;9.50;4.20;;;28.30;1.00;;;;;;5981691;24;20419;-64
2023/06/16 10:00:15;;;;;;;7.53;4.10;;;28.30;1.00;;;;;;5981620;24;20785;-63
2023/06/16 10:02:43;;;;;;;8.13;4.20;;;28.30;1.00;;;;;;5982381;24;20404;-64
2023/06/16 10:05:13;;;;;;;8.40;4.00;;;29.10;1.00;;;;;;5980794;24;20415;-64
2023/06/16 10:07:42;;;;;;;7.87;4.13;;;29.40;1.00;;;;;;5982172;24;20729;-64
2023/06/16 10:10:11;;;;;;;7.53;3.67;;;30.50;1.00;;;;;;5982748;24;20450;-64
2023/06/16 10:12:44;;;;;;;10.00;4.10;;;30.50;1.00;;;;;;5983180;24;20420;-64
2023/06/16 10:15:16;;;;;;;7.50;3.80;;;30.10;1.00;;;;;;5982766;24;20459;-66
2023/06/16 10:17:44;;;;;;;8.23;4.17;;;30.00;1.00;;;;;;5983375;24;20435;-64
2023/06/16 10:20:13;;;;;;;7.70;3.57;;;30.20;1.00;;;;;;5983122;24;20394;-62
2023/06/16 10:22:40;;;;;;;9.87;4.10;;;30.00;1.00;;;;;;5983275;24;20487;-64
2023/06/16 10:25:08;;;;;;;7.50;3.83;;;30.30;1.00;;;;;;5982499;24;20406;-64
2023/06/16 10:27:37;;;;;;;7.97;4.20;;;31.10;1.00;;;;;;5983845;24;20384;-64
2023/06/16 10:30:09;;;;;;;7.93;3.50;;;31.50;1.00;;;;;;5983410;24;20447;-64
2023/06/16 10:32:37;;;;;;;6.20;3.37;;;30.90;1.00;;;;;;5983144;24;20404;-64
2023/06/16 10:35:10;;;;;;;9.80;3.90;;;31.90;1.00;;;;;;5982912;24;20458;-63
2023/06/16 10:37:36;;;;;;;9.33;4.60;;;32.40;1.00;;;;;;5983406;24;20411;-64
2023/06/16 10:40:05;;;;;;;9.77;4.13;;;32.50;1.00;;;;;;5983033;24;20398;-64
2023/06/16 10:42:34;;;;;;;7.90;4.30;;;32.40;1.00;;;;;;5981712;24;20448;-64
2023/06/16 10:45:23;;;;;;;6.53;3.53;;;31.50;1.00;;;;;;5981018;24;20422;-63
2023/06/16 10:47:56;;;;;;;8.73;3.60;;;31.60;1.00;;;;;;5981629;24;20877;-64
2023/06/16 10:50:31;;;;;;;9.53;4.20;;;31.20;1.00;;;;;;5982030;24;20718;-64
2023/06/16 10:53:08;;;;;;;7.83;4.00;;;30.80;1.00;;;;;;5980926;24;20882;-64
2023/06/16 10:55:35;;;;;;;11.50;3.70;;;30.70;1.00;;;;;;5981484;24;20455;-64
2023/06/16 10:58:36;;;;;;;7.13;3.87;;;30.50;1.00;;;;;;5980936;24;20425;-64
2023/06/16 11:01:24;;;;;;;7.30;4.00;;;31.20;1.00;;;;;;5924252;24;20380;-63
2023/06/16 11:04:00;;;;;;;7.60;3.77;;;31.20;1.00;;;;;;5923114;24;20488;-63
2023/06/16 11:06:28;;;;;;;8.60;3.80;;;31.10;1.00;;;;;;5961753;24;20423;-63
2023/06/16 11:12:17;;;;;;;6.90;4.13;;;31.10;1.00;;;;;;5981446;23;20445;-65
2023/06/16 11:14:44;;;;;;;6.97;3.70;;;31.90;1.00;;;;;;5983506;24;20926;-65
2023/06/16 11:17:13;;;;;;;8.13;4.20;;;31.60;1.00;;;;;;5982560;24;20808;-65
2023/06/16 11:19:42;;;;;;;6.50;3.80;;;31.40;1.00;;;;;;5982145;24;20476;-64
2023/06/16 11:22:09;;;;;;;8.07;4.00;;;31.70;1.00;;;;;;5982034;24;20423;-65
2023/06/16 11:24:36;;;;;;;6.83;3.63;;;31.30;1.00;;;;;;5981840;24;20809;-64
2023/06/16 11:27:03;;;;;;;8.10;4.10;;;31.20;1.00;;;;;;5982007;24;20450;-65
2023/06/16 11:29:30;;;;;;;8.60;4.63;;;31.60;1.00;;;;;;5981878;24;21032;-65
2023/06/16 11:31:59;;;;;;;8.40;3.40;;;31.80;1.00;;;;;;5982309;24;20423;-65
2023/06/16 11:34:28;;;;;;;7.73;4.30;;;31.80;1.00;;;;;;5981531;24;20717;-66
2023/06/16 11:36:56;;;;;;;8.67;4.77;;;30.60;1.00;;;;;;5982378;24;20394;-67
2023/06/16 11:39:23;;;;;;;9.03;4.67;;;29.60;1.00;;;;;;5981451;24;20895;-65
2023/06/16 11:41:56;;;;;;;6.90;4.00;;;29.60;1.00;;;;;;5982464;24;20458;-65
2023/06/16 11:44:23;;;;;;;6.80;3.83;;;30.20;1.00;;;;;;5983395;24;20407;-65
2023/06/16 11:46:50;;;;;;;6.53;4.13;;;30.60;1.00;;;;;;5984084;24;20584;-65
2023/06/16 11:49:17;;;;;;;10.37;4.40;;;30.80;1.00;;;;;;5983649;24;20476;-66
2023/06/16 11:51:45;;;;;;;8.07;4.57;;;30.00;1.00;;;;;;5983801;24;20419;-66
2023/06/16 11:54:12;;;;;;;8.00;3.97;;;31.10;1.00;;;;;;5983465;24;20709;-67
2023/06/16 11:56:40;;;;;;;7.63;4.07;;;30.40;1.00;;;;;;5983371;24;20415;-67
2023/06/16 11:59:09;;;;;;;6.60;3.63;;;31.10;1.00;;;;;;5984140;24;20393;-67
2023/06/16 12:01:36;;;;;;;12.10;4.67;;;32.10;1.00;;;;;;5983429;24;20755;-67
2023/06/16 12:04:04;;;;;;;8.33;4.83;;;31.70;1.00;;;;;;5982014;24;20430;-68
2023/06/16 12:06:31;;;;;;;7.80;4.07;;;32.10;1.00;;;;;;5982983;24;20466;-67
2023/06/16 12:09:03;;;;;;;6.80;3.57;;;31.50;1.00;;;;;;5983076;24;20727;-65
2023/06/16 12:11:30;;;;;;;9.37;4.50;;;31.80;1.00;;;;;;5983495;24;20427;-65
2023/06/16 12:13:58;;;;;;;7.57;4.27;;;31.60;1.00;;;;;;5982926;24;20472;-65
2023/06/16 12:16:26;;;;;;;10.13;3.90;;;32.90;1.00;;;;;;5983989;24;20490;-65
2023/06/16 12:18:53;;;;;;;8.00;4.13;;;32.90;1.00;;;;;;5983505;24;20404;-64
2023/06/16 12:21:22;;;;;;;7.70;4.50;;;33.60;1.00;;;;;;5983905;24;20394;-65
2023/06/16 12:23:52;;;;;;;8.37;3.77;;;33.20;1.00;;;;;;5982810;24;20506;-64
2023/06/16 12:26:35;;;;;;;8.83;5.00;;;33.70;1.00;;;;;;5983448;24;20416;-66
2023/06/16 12:29:08;;;;;;;8.30;4.70;;;34.50;1.00;;;;;;5983306;24;20403;-66
2023/06/16 12:31:35;;;;;;;7.50;4.30;;;33.30;1.00;;;;;;5984002;24;20379;-66
2023/06/16 12:34:03;;;;;;;9.30;5.00;;;32.60;1.00;;;;;;5983194;24;20491;-66
2023/06/16 12:36:29;;;;;;;8.60;4.50;;;32.60;1.00;;;;;;5983512;24;20415;-65
2023/06/16 12:38:58;;;;;;;9.57;4.30;;;33.10;1.00;;;;;;5983117;24;20401;-65
2023/06/16 12:41:27;;;;;;;8.97;4.63;;;34.00;1.00;;;;;;5983398;24;20429;-65
2023/06/16 12:43:56;;;;;;;6.83;3.40;;;35.50;1.00;;;;;;5980389;24;20426;-66
2023/06/16 12:46:23;;;;;;;14.53;4.77;;;35.20;1.00;;;;;;5982492;24;20428;-65
2023/06/16 12:48:49;;;;;;;11.93;4.57;;;34.80;1.00;;;;;;5981725;24;20398;-66
2023/06/16 12:51:17;;;;;;;13.30;4.53;;;34.70;1.00;;;;;;5982077;24;20398;-65